EFW56R EGKK-EGJJ
Flight info
| Callsign | EFW56R |
|---|---|
| Flight time | 0h 36m |
| Altitude | 22000 |
| Route | NOVMA L620 SAM N63 LELNA |
| Aircraft | A320/M-SDE3FGHIRWY/LB1 |
Departure
| Time | 2026-04-16 14:13 |
|---|---|
| Airport | London Gatwick Airport (EGKK) |
Arrival
| Time | 2026-04-16 14:50 |
|---|---|
| Airport | Jersey Airport (EGJJ) |
| Time | Latitude | Longitude | Altitude | Speed | Heading |
|---|---|---|---|---|---|
| 2026-04-16 13:14 | 51.15489 | -0.16441 | 205 ft | 0 kts | 76° |
| 2026-04-16 13:54 | 51.15488 | -0.16444 | 216 ft | 2 kts | 76° |
| 2026-04-16 13:54 | 51.15485 | -0.16463 | 214 ft | 2 kts | 61° |
| 2026-04-16 13:55 | 51.15479 | -0.16487 | 210 ft | 2 kts | 49° |
| 2026-04-16 13:55 | 51.15467 | -0.16508 | 217 ft | 2 kts | 24° |
| 2026-04-16 13:55 | 51.15450 | -0.16517 | 217 ft | 2 kts | 5° |
| 2026-04-16 13:55 | 51.15435 | -0.16514 | 215 ft | 2 kts | 1° |
| 2026-04-16 13:56 | 51.15429 | -0.16515 | 213 ft | 0 kts | 330° |
| 2026-04-16 13:58 | 51.15443 | -0.16525 | 215 ft | 7 kts | 337° |
| 2026-04-16 13:58 | 51.15457 | -0.16603 | 205 ft | 8 kts | 261° |
| 2026-04-16 13:58 | 51.15449 | -0.16670 | 211 ft | 8 kts | 258° |
| 2026-04-16 13:58 | 51.15405 | -0.16717 | 205 ft | 9 kts | 170° |
| 2026-04-16 13:59 | 51.15341 | -0.16689 | 212 ft | 10 kts | 160° |
| 2026-04-16 13:59 | 51.15277 | -0.16666 | 209 ft | 7 kts | 167° |
| 2026-04-16 13:59 | 51.15274 | -0.16665 | 208 ft | 0 kts | 167° |
| 2026-04-16 14:11 | 51.15248 | -0.16655 | 205 ft | 8 kts | 167° |
| 2026-04-16 14:11 | 51.15206 | -0.16641 | 210 ft | 9 kts | 171° |
| 2026-04-16 14:11 | 51.15144 | -0.16679 | 214 ft | 11 kts | 242° |
| 2026-04-16 14:11 | 51.15136 | -0.16713 | 205 ft | 0 kts | 255° |
| 2026-04-16 14:12 | 51.15099 | -0.16952 | 214 ft | 56 kts | 256° |
| 2026-04-16 14:13 | 51.14944 | -0.18085 | 214 ft | 137 kts | 257° |
| 2026-04-16 14:13 | 51.14687 | -0.19666 | 660 ft | 157 kts | 253° |
| 2026-04-16 14:13 | 51.14444 | -0.21398 | 1513 ft | 168 kts | 255° |
| 2026-04-16 14:13 | 51.14211 | -0.23392 | 2106 ft | 182 kts | 257° |
| 2026-04-16 14:14 | 51.13969 | -0.25428 | 2544 ft | 198 kts | 256° |
| 2026-04-16 14:14 | 51.13652 | -0.27697 | 2884 ft | 222 kts | 255° |
| 2026-04-16 14:14 | 51.13293 | -0.30192 | 3444 ft | 239 kts | 256° |
| 2026-04-16 14:14 | 51.13041 | -0.32010 | 4047 ft | 243 kts | 256° |
| 2026-04-16 14:15 | 51.12664 | -0.34695 | 4958 ft | 248 kts | 256° |
| 2026-04-16 14:15 | 51.12278 | -0.37417 | 5850 ft | 252 kts | 256° |
| 2026-04-16 14:15 | 51.11892 | -0.40146 | 6728 ft | 255 kts | 256° |
| 2026-04-16 14:15 | 51.11467 | -0.42906 | 7541 ft | 259 kts | 250° |
| 2026-04-16 14:16 | 51.10720 | -0.45546 | 7890 ft | 262 kts | 244° |
| 2026-04-16 14:16 | 51.09917 | -0.48139 | 7984 ft | 261 kts | 244° |
| 2026-04-16 14:16 | 51.09371 | -0.49875 | 8011 ft | 261 kts | 244° |
| 2026-04-16 14:16 | 51.08255 | -0.53409 | 8018 ft | 261 kts | 243° |
| 2026-04-16 14:17 | 51.07389 | -0.56148 | 8701 ft | 265 kts | 244° |
| 2026-04-16 14:17 | 51.06600 | -0.58649 | 9588 ft | 266 kts | 244° |
| 2026-04-16 14:17 | 51.06038 | -0.60435 | 10149 ft | 267 kts | 244° |
| 2026-04-16 14:17 | 51.05282 | -0.63298 | 10913 ft | 271 kts | 254° |
| 2026-04-16 14:18 | 51.04878 | -0.66243 | 11646 ft | 274 kts | 257° |
| 2026-04-16 14:18 | 51.04485 | -0.69223 | 12388 ft | 277 kts | 257° |
| 2026-04-16 14:18 | 51.04094 | -0.72146 | 13113 ft | 280 kts | 257° |
| 2026-04-16 14:18 | 51.03686 | -0.75179 | 13833 ft | 283 kts | 257° |
| 2026-04-16 14:19 | 51.03258 | -0.78358 | 14166 ft | 300 kts | 257° |
| 2026-04-16 14:19 | 51.02805 | -0.81715 | 14335 ft | 319 kts | 257° |
| 2026-04-16 14:19 | 51.02329 | -0.85213 | 14812 ft | 327 kts | 257° |
| 2026-04-16 14:19 | 51.01847 | -0.88755 | 15426 ft | 330 kts | 257° |
| 2026-04-16 14:20 | 51.01334 | -0.92523 | 16084 ft | 332 kts | 257° |
| 2026-04-16 14:20 | 51.00852 | -0.96067 | 16704 ft | 334 kts | 257° |
| 2026-04-16 14:20 | 51.00352 | -0.99737 | 17335 ft | 337 kts | 257° |
| 2026-04-16 14:20 | 50.99851 | -1.03388 | 17955 ft | 340 kts | 257° |
| 2026-04-16 14:21 | 50.99347 | -1.07050 | 18156 ft | 340 kts | 257° |
| 2026-04-16 14:21 | 50.98844 | -1.10694 | 18187 ft | 337 kts | 257° |
| 2026-04-16 14:21 | 50.98341 | -1.14321 | 18187 ft | 335 kts | 257° |
| 2026-04-16 14:21 | 50.97839 | -1.17929 | 18190 ft | 335 kts | 257° |
| 2026-04-16 14:22 | 50.97335 | -1.21534 | 18197 ft | 335 kts | 257° |
| 2026-04-16 14:22 | 50.96817 | -1.25223 | 18194 ft | 335 kts | 257° |
| 2026-04-16 14:22 | 50.96286 | -1.28783 | 18194 ft | 334 kts | 252° |
| 2026-04-16 14:22 | 50.95327 | -1.32174 | 18193 ft | 335 kts | 239° |
| 2026-04-16 14:23 | 50.93871 | -1.35070 | 18193 ft | 337 kts | 225° |
| 2026-04-16 14:23 | 50.92007 | -1.37297 | 18192 ft | 341 kts | 212° |
| 2026-04-16 14:23 | 50.89872 | -1.39026 | 18195 ft | 342 kts | 210° |
| 2026-04-16 14:23 | 50.87753 | -1.40710 | 18192 ft | 342 kts | 210° |
| 2026-04-16 14:24 | 50.85625 | -1.42406 | 18196 ft | 342 kts | 210° |
| 2026-04-16 14:24 | 50.83440 | -1.44148 | 18195 ft | 342 kts | 210° |
| 2026-04-16 14:24 | 50.81313 | -1.45843 | 18195 ft | 342 kts | 210° |
| 2026-04-16 14:24 | 50.79180 | -1.47541 | 18203 ft | 342 kts | 210° |
| 2026-04-16 14:25 | 50.77051 | -1.49231 | 18200 ft | 343 kts | 210° |
| 2026-04-16 14:25 | 50.74924 | -1.50920 | 18204 ft | 343 kts | 210° |
| 2026-04-16 14:25 | 50.72735 | -1.52659 | 18205 ft | 343 kts | 210° |
| 2026-04-16 14:25 | 50.71050 | -1.53996 | 18201 ft | 343 kts | 210° |
| 2026-04-16 14:26 | 50.68955 | -1.55640 | 18204 ft | 343 kts | 210° |
| 2026-04-16 14:26 | 50.66781 | -1.57351 | 18205 ft | 343 kts | 210° |
| 2026-04-16 14:26 | 50.64649 | -1.59033 | 18208 ft | 343 kts | 210° |
| 2026-04-16 14:26 | 50.62520 | -1.60718 | 18205 ft | 342 kts | 210° |
| 2026-04-16 14:27 | 50.61929 | -1.61186 | 18203 ft | 342 kts | 210° |
| 2026-04-16 14:27 | 50.59805 | -1.62777 | 18195 ft | 342 kts | 209° |
| 2026-04-16 14:27 | 50.57676 | -1.64421 | 18196 ft | 342 kts | 210° |
| 2026-04-16 14:27 | 50.55550 | -1.66114 | 18191 ft | 342 kts | 211° |
| 2026-04-16 14:28 | 50.53439 | -1.67811 | 18203 ft | 342 kts | 211° |
| 2026-04-16 14:28 | 50.51321 | -1.69510 | 18207 ft | 342 kts | 211° |
| 2026-04-16 14:28 | 50.49164 | -1.71227 | 18209 ft | 342 kts | 210° |
| 2026-04-16 14:28 | 50.47050 | -1.72892 | 18208 ft | 342 kts | 210° |
| 2026-04-16 14:29 | 50.44919 | -1.74557 | 18210 ft | 342 kts | 210° |
| 2026-04-16 14:29 | 50.42771 | -1.76231 | 18222 ft | 343 kts | 210° |
| 2026-04-16 14:29 | 50.40643 | -1.77889 | 18221 ft | 343 kts | 210° |
| 2026-04-16 14:29 | 50.38507 | -1.79550 | 18219 ft | 343 kts | 210° |
| 2026-04-16 14:30 | 50.36368 | -1.81213 | 18228 ft | 343 kts | 210° |
| 2026-04-16 14:30 | 50.34235 | -1.82873 | 18220 ft | 343 kts | 210° |
| 2026-04-16 14:30 | 50.32050 | -1.84575 | 18225 ft | 343 kts | 210° |
| 2026-04-16 14:30 | 50.29934 | -1.86213 | 18230 ft | 341 kts | 210° |
| 2026-04-16 14:31 | 50.28047 | -1.87694 | 18226 ft | 342 kts | 210° |
| 2026-04-16 14:31 | 50.25787 | -1.89459 | 18219 ft | 342 kts | 210° |
| 2026-04-16 14:31 | 50.23656 | -1.91111 | 18220 ft | 342 kts | 210° |
| 2026-04-16 14:31 | 50.21516 | -1.92763 | 18226 ft | 342 kts | 210° |
| 2026-04-16 14:32 | 50.19350 | -1.94431 | 18226 ft | 342 kts | 210° |
| 2026-04-16 14:32 | 50.17216 | -1.96070 | 18224 ft | 342 kts | 210° |
| 2026-04-16 14:32 | 50.15078 | -1.97713 | 18224 ft | 342 kts | 210° |
| 2026-04-16 14:32 | 50.12941 | -1.99357 | 18226 ft | 342 kts | 210° |
| 2026-04-16 14:33 | 50.10803 | -2.01003 | 18222 ft | 342 kts | 210° |
| 2026-04-16 14:33 | 50.08637 | -2.02673 | 18202 ft | 344 kts | 210° |
| 2026-04-16 14:33 | 50.06447 | -2.04360 | 18195 ft | 344 kts | 210° |
| 2026-04-16 14:33 | 50.04328 | -2.05984 | 18020 ft | 334 kts | 210° |
| 2026-04-16 14:34 | 50.02261 | -2.07565 | 17612 ft | 329 kts | 210° |
| 2026-04-16 14:34 | 50.00197 | -2.09108 | 17161 ft | 327 kts | 206° |
| 2026-04-16 14:34 | 49.97974 | -2.09999 | 16737 ft | 331 kts | 190° |
| 2026-04-16 14:34 | 49.95657 | -2.09872 | 16316 ft | 335 kts | 174° |
| 2026-04-16 14:35 | 49.93368 | -2.09175 | 15866 ft | 334 kts | 173° |
| 2026-04-16 14:35 | 49.91101 | -2.08465 | 15451 ft | 332 kts | 173° |
| 2026-04-16 14:35 | 49.89573 | -2.07986 | 15173 ft | 330 kts | 173° |
| 2026-04-16 14:35 | 49.87336 | -2.07287 | 14773 ft | 328 kts | 173° |
| 2026-04-16 14:36 | 49.85101 | -2.06590 | 14376 ft | 325 kts | 173° |
| 2026-04-16 14:36 | 49.82854 | -2.05899 | 13970 ft | 323 kts | 173° |
| 2026-04-16 14:36 | 49.80574 | -2.05202 | 13245 ft | 328 kts | 173° |
| 2026-04-16 14:36 | 49.78272 | -2.04505 | 12410 ft | 337 kts | 173° |
| 2026-04-16 14:37 | 49.75999 | -2.03809 | 12167 ft | 327 kts | 173° |
| 2026-04-16 14:37 | 49.73828 | -2.03133 | 12020 ft | 307 kts | 173° |
| 2026-04-16 14:37 | 49.71811 | -2.02497 | 11889 ft | 285 kts | 173° |
| 2026-04-16 14:37 | 49.69887 | -2.01897 | 11752 ft | 265 kts | 174° |
| 2026-04-16 14:38 | 49.67964 | -2.01503 | 11361 ft | 254 kts | 179° |
| 2026-04-16 14:38 | 49.66616 | -2.01345 | 11111 ft | 249 kts | 181° |
| 2026-04-16 14:38 | 49.64312 | -2.01148 | 10697 ft | 247 kts | 181° |
| 2026-04-16 14:38 | 49.63190 | -2.01053 | 10494 ft | 246 kts | 181° |
| 2026-04-16 14:39 | 49.61461 | -2.00897 | 10179 ft | 248 kts | 180° |
| 2026-04-16 14:39 | 49.59731 | -2.00722 | 9831 ft | 248 kts | 180° |
| 2026-04-16 14:39 | 49.58060 | -2.00543 | 9539 ft | 248 kts | 180° |
| 2026-04-16 14:39 | 49.56274 | -2.00344 | 9209 ft | 247 kts | 180° |
| 2026-04-16 14:40 | 49.54557 | -2.00146 | 8900 ft | 247 kts | 179° |
| 2026-04-16 14:40 | 49.52845 | -1.99948 | 8592 ft | 246 kts | 179° |
| 2026-04-16 14:40 | 49.51140 | -1.99751 | 8281 ft | 246 kts | 179° |
| 2026-04-16 14:40 | 49.49426 | -1.99553 | 7970 ft | 246 kts | 179° |
| 2026-04-16 14:41 | 49.47719 | -1.99356 | 7661 ft | 246 kts | 179° |
| 2026-04-16 14:41 | 49.46190 | -1.99180 | 7384 ft | 246 kts | 179° |
| 2026-04-16 14:41 | 49.44485 | -1.98982 | 7079 ft | 246 kts | 179° |
| 2026-04-16 14:41 | 49.42779 | -1.98783 | 6766 ft | 246 kts | 179° |
| 2026-04-16 14:42 | 49.41073 | -1.98583 | 6441 ft | 246 kts | 179° |
| 2026-04-16 14:42 | 49.39351 | -1.98381 | 6124 ft | 245 kts | 179° |
| 2026-04-16 14:42 | 49.37677 | -1.98184 | 5800 ft | 234 kts | 179° |
| 2026-04-16 14:42 | 49.36079 | -1.97997 | 5502 ft | 223 kts | 179° |
| 2026-04-16 14:43 | 49.34544 | -1.97820 | 5094 ft | 218 kts | 179° |
| 2026-04-16 14:43 | 49.33093 | -1.97651 | 4908 ft | 201 kts | 179° |
| 2026-04-16 14:43 | 49.31727 | -1.97492 | 4550 ft | 192 kts | 179° |
| 2026-04-16 14:43 | 49.30431 | -1.97340 | 4292 ft | 181 kts | 179° |
| 2026-04-16 14:44 | 49.29228 | -1.97199 | 4078 ft | 164 kts | 179° |
| 2026-04-16 14:44 | 49.28138 | -1.97070 | 3877 ft | 147 kts | 180° |
| 2026-04-16 14:44 | 49.27143 | -1.96954 | 3691 ft | 138 kts | 180° |
| 2026-04-16 14:44 | 49.26194 | -1.96846 | 3520 ft | 136 kts | 180° |
| 2026-04-16 14:45 | 49.25246 | -1.96740 | 3347 ft | 136 kts | 180° |
| 2026-04-16 14:45 | 49.24306 | -1.96636 | 3172 ft | 136 kts | 180° |
| 2026-04-16 14:45 | 49.23353 | -1.96734 | 2976 ft | 132 kts | 207° |
| 2026-04-16 14:45 | 49.22713 | -1.97727 | 2823 ft | 135 kts | 247° |
| 2026-04-16 14:46 | 49.22588 | -1.99161 | 2667 ft | 136 kts | 261° |
| 2026-04-16 14:46 | 49.22478 | -2.00592 | 2485 ft | 135 kts | 259° |
| 2026-04-16 14:46 | 49.22351 | -2.02030 | 2319 ft | 134 kts | 257° |
| 2026-04-16 14:46 | 49.22179 | -2.03460 | 2261 ft | 137 kts | 257° |
| 2026-04-16 14:47 | 49.22025 | -2.04977 | 2083 ft | 136 kts | 258° |
| 2026-04-16 14:47 | 49.21890 | -2.06449 | 1882 ft | 135 kts | 260° |
| 2026-04-16 14:47 | 49.21764 | -2.07901 | 1709 ft | 137 kts | 259° |
| 2026-04-16 14:47 | 49.21642 | -2.09342 | 1518 ft | 136 kts | 260° |
| 2026-04-16 14:48 | 49.21560 | -2.10318 | 1402 ft | 137 kts | 261° |
| 2026-04-16 14:48 | 49.21441 | -2.11765 | 1193 ft | 137 kts | 261° |
| 2026-04-16 14:48 | 49.21317 | -2.13255 | 1015 ft | 138 kts | 261° |
| 2026-04-16 14:48 | 49.21200 | -2.14710 | 779 ft | 136 kts | 262° |
| 2026-04-16 14:49 | 49.21082 | -2.16149 | 616 ft | 136 kts | 261° |
| 2026-04-16 14:49 | 49.20954 | -2.17562 | 448 ft | 134 kts | 262° |
| 2026-04-16 14:49 | 49.20855 | -2.18875 | 284 ft | 130 kts | 261° |
| 2026-04-16 14:49 | 49.20766 | -2.19903 | 283 ft | 51 kts | 265° |
| 2026-04-16 14:50 | 49.20688 | -2.20104 | 281 ft | 14 kts | 162° |
| 2026-04-16 14:50 | 49.20594 | -2.20091 | 281 ft | 12 kts | 177° |
| 2026-04-16 14:50 | 49.20583 | -2.20090 | 281 ft | 0 kts | 178° |
| 2026-04-16 14:50 | 49.20559 | -2.20088 | 281 ft | 9 kts | 173° |
| 2026-04-16 14:51 | 49.20525 | -2.20014 | 280 ft | 10 kts | 113° |
| 2026-04-16 14:51 | 49.20547 | -2.19938 | 280 ft | 10 kts | 14° |
| 2026-04-16 14:51 | 49.20601 | -2.19883 | 280 ft | 10 kts | 73° |
| 2026-04-16 14:51 | 49.20611 | -2.19783 | 280 ft | 9 kts | 83° |
| 2026-04-16 14:53 | 49.20557 | -2.19700 | 280 ft | 0 kts | 173° |